Time;durP1;ratioP1;P1;durP2;ratioP2;P2;SDS_P1;SDS_P2;PMS_P1;PMS_P2;Temp;Humidity;BMP_temperature;BMP_pressure;BME280_temperature;BME280_humidity;BME280_pressure;Samples;Min_cycle;Max_cycle;Signal;HPM_P1;HPM_P2
2019/04/05 00:01:05;;;;;;;10.1;4.0;;;;;;;;;;;;;
2019/04/05 00:03:00;;;;;;;11.1;4.6;;;;;;;;;;;;;
2019/04/05 00:04:59;;;;;;;6.9;3.0;;;;;;;;;;;;;
2019/04/05 00:06:59;;;;;;;8.6;4.1;;;;;;;;;;;;;
2019/04/05 00:08:59;;;;;;;9.9;4.4;;;;;;;;;;;;;
2019/04/05 00:10:59;;;;;;;13.6;5.0;;;;;;;;;;;;;
2019/04/05 00:12:58;;;;;;;9.2;4.4;;;;;;;;;;;;;
2019/04/05 00:14:58;;;;;;;12.2;4.6;;;;;;;;;;;;;
2019/04/05 00:16:58;;;;;;;8.5;4.5;;;;;;;;;;;;;
2019/04/05 00:18:57;;;;;;;11.2;4.8;;;;;;;;;;;;;
2019/04/05 00:20:57;;;;;;;9.6;4.4;;;;;;;;;;;;;
2019/04/05 00:22:57;;;;;;;12.0;4.2;;;;;;;;;;;;;
2019/04/05 00:24:57;;;;;;;9.1;4.7;;;;;;;;;;;;;
2019/04/05 00:26:56;;;;;;;6.8;3.2;;;;;;;;;;;;;
2019/04/05 00:28:56;;;;;;;12.9;4.8;;;;;;;;;;;;;
2019/04/05 00:30:56;;;;;;;8.4;4.3;;;;;;;;;;;;;
2019/04/05 00:32:55;;;;;;;8.0;4.1;;;;;;;;;;;;;
2019/04/05 00:34:55;;;;;;;13.5;5.3;;;;;;;;;;;;;
2019/04/05 00:36:55;;;;;;;16.0;5.4;;;;;;;;;;;;;
2019/04/05 00:38:55;;;;;;;9.9;5.4;;;;;;;;;;;;;
2019/04/05 00:40:54;;;;;;;13.9;5.2;;;;;;;;;;;;;
2019/04/05 00:42:54;;;;;;;10.2;4.8;;;;;;;;;;;;;
2019/04/05 00:44:54;;;;;;;12.6;5.5;;;;;;;;;;;;;
2019/04/05 00:48:53;;;;;;;8.6;5.2;;;;;;;;;;;;;
2019/04/05 00:50:53;;;;;;;14.1;5.8;;;;;;;;;;;;;
2019/04/05 00:52:53;;;;;;;12.7;5.7;;;;;;;;;;;;;
2019/04/05 00:54:52;;;;;;;11.6;5.5;;;;;;;;;;;;;
2019/04/05 00:56:52;;;;;;;10.4;5.3;;;;;;;;;;;;;
2019/04/05 00:58:52;;;;;;;10.5;5.2;;;;;;;;;;;;;
2019/04/05 01:00:51;;;;;;;7.9;4.2;;;;;;;;;;;;;
2019/04/05 01:02:51;;;;;;;9.7;4.8;;;;;;;;;;;;;
2019/04/05 01:04:51;;;;;;;12.0;5.7;;;;;;;;;;;;;
2019/04/05 01:06:50;;;;;;;11.7;5.5;;;;;;;;;;;;;
2019/04/05 01:08:50;;;;;;;12.9;6.2;;;;;;;;;;;;;
2019/04/05 01:10:50;;;;;;;11.7;5.2;;;;;;;;;;;;;
2019/04/05 01:12:50;;;;;;;15.7;5.9;;;;;;;;;;;;;
2019/04/05 01:14:49;;;;;;;10.9;5.2;;;;;;;;;;;;;
2019/04/05 01:16:49;;;;;;;11.8;5.7;;;;;;;;;;;;;
2019/04/05 01:18:49;;;;;;;11.1;5.5;;;;;;;;;;;;;
2019/04/05 01:20:48;;;;;;;10.3;5.7;;;;;;;;;;;;;
2019/04/05 01:22:48;;;;;;;12.6;5.5;;;;;;;;;;;;;
2019/04/05 01:24:48;;;;;;;13.1;6.1;;;;;;;;;;;;;
2019/04/05 01:26:47;;;;;;;12.0;5.2;;;;;;;;;;;;;
2019/04/05 01:28:47;;;;;;;13.0;4.9;;;;;;;;;;;;;
2019/04/05 01:30:47;;;;;;;12.6;6.0;;;;;;;;;;;;;
2019/04/05 01:32:47;;;;;;;13.2;5.9;;;;;;;;;;;;;
2019/04/05 01:34:46;;;;;;;11.0;5.0;;;;;;;;;;;;;
2019/04/05 01:36:46;;;;;;;10.6;5.0;;;;;;;;;;;;;
2019/04/05 01:38:46;;;;;;;9.2;4.6;;;;;;;;;;;;;
2019/04/05 01:40:45;;;;;;;9.8;5.1;;;;;;;;;;;;;
2019/04/05 01:44:45;;;;;;;10.2;5.5;;;;;;;;;;;;;
2019/04/05 01:46:44;;;;;;;13.1;5.3;;;;;;;;;;;;;
2019/04/05 01:48:44;;;;;;;10.5;4.9;;;;;;;;;;;;;
2019/04/05 01:50:44;;;;;;;10.0;4.9;;;;;;;;;;;;;
2019/04/05 01:52:44;;;;;;;10.6;4.9;;;;;;;;;;;;;
2019/04/05 01:54:43;;;;;;;9.7;4.3;;;;;;;;;;;;;
2019/04/05 01:56:43;;;;;;;9.0;4.5;;;;;;;;;;;;;
2019/04/05 01:58:43;;;;;;;7.9;4.2;;;;;;;;;;;;;
2019/04/05 02:00:42;;;;;;;13.9;4.8;;;;;;;;;;;;;
2019/04/05 02:02:42;;;;;;;9.4;4.5;;;;;;;;;;;;;
2019/04/05 02:04:42;;;;;;;6.8;4.2;;;;;;;;;;;;;
2019/04/05 02:06:41;;;;;;;8.3;4.1;;;;;;;;;;;;;
2019/04/05 02:10:41;;;;;;;8.8;3.9;;;;;;;;;;;;;
2019/04/05 02:12:41;;;;;;;9.4;4.3;;;;;;;;;;;;;
2019/04/05 02:14:40;;;;;;;10.5;4.3;;;;;;;;;;;;;
2019/04/05 02:16:40;;;;;;;11.2;4.3;;;;;;;;;;;;;
2019/04/05 02:18:40;;;;;;;11.1;4.6;;;;;;;;;;;;;
2019/04/05 02:20:39;;;;;;;8.1;4.4;;;;;;;;;;;;;
2019/04/05 02:22:39;;;;;;;12.9;5.0;;;;;;;;;;;;;
2019/04/05 02:24:39;;;;;;;8.9;4.1;;;;;;;;;;;;;
2019/04/05 02:26:38;;;;;;;10.5;4.7;;;;;;;;;;;;;
2019/04/05 02:28:38;;;;;;;9.1;4.3;;;;;;;;;;;;;
2019/04/05 02:30:38;;;;;;;9.7;4.7;;;;;;;;;;;;;
2019/04/05 02:32:38;;;;;;;10.7;4.5;;;;;;;;;;;;;
2019/04/05 02:34:37;;;;;;;9.4;4.7;;;;;;;;;;;;;
2019/04/05 02:36:37;;;;;;;7.1;4.4;;;;;;;;;;;;;
2019/04/05 02:38:37;;;;;;;7.5;3.5;;;;;;;;;;;;;
2019/04/05 02:40:36;;;;;;;12.1;4.5;;;;;;;;;;;;;
2019/04/05 02:42:36;;;;;;;9.1;4.1;;;;;;;;;;;;;
2019/04/05 02:44:36;;;;;;;10.2;4.3;;;;;;;;;;;;;
2019/04/05 02:46:35;;;;;;;9.3;4.6;;;;;;;;;;;;;
2019/04/05 02:48:35;;;;;;;8.9;4.7;;;;;;;;;;;;;
2019/04/05 02:50:35;;;;;;;8.7;4.7;;;;;;;;;;;;;
2019/04/05 02:52:34;;;;;;;9.1;4.6;;;;;;;;;;;;;
2019/04/05 02:56:34;;;;;;;7.9;4.7;;;;;;;;;;;;;
2019/04/05 02:58:34;;;;;;;9.1;4.5;;;;;;;;;;;;;
2019/04/05 03:00:33;;;;;;;10.5;4.2;;;;;;;;;;;;;
2019/04/05 03:02:33;;;;;;;11.5;4.4;;;;;;;;;;;;;
2019/04/05 03:04:33;;;;;;;11.1;4.7;;;;;;;;;;;;;
2019/04/05 03:06:32;;;;;;;7.0;4.0;;;;;;;;;;;;;
2019/04/05 03:08:32;;;;;;;9.6;4.4;;;;;;;;;;;;;
2019/04/05 03:10:32;;;;;;;10.2;4.5;;;;;;;;;;;;;
2019/04/05 03:12:31;;;;;;;8.3;4.5;;;;;;;;;;;;;
2019/04/05 03:14:31;;;;;;;11.6;4.6;;;;;;;;;;;;;
2019/04/05 03:16:31;;;;;;;10.8;4.8;;;;;;;;;;;;;
2019/04/05 03:18:30;;;;;;;11.2;4.5;;;;;;;;;;;;;
2019/04/05 03:20:30;;;;;;;13.1;5.1;;;;;;;;;;;;;
2019/04/05 03:22:30;;;;;;;8.1;4.5;;;;;;;;;;;;;
2019/04/05 03:24:29;;;;;;;11.2;5.0;;;;;;;;;;;;;
2019/04/05 03:26:29;;;;;;;11.1;4.9;;;;;;;;;;;;;
2019/04/05 03:28:29;;;;;;;9.9;5.4;;;;;;;;;;;;;
2019/04/05 03:30:28;;;;;;;10.9;5.1;;;;;;;;;;;;;
2019/04/05 03:32:28;;;;;;;12.0;5.1;;;;;;;;;;;;;
2019/04/05 03:34:28;;;;;;;12.3;5.4;;;;;;;;;;;;;
2019/04/05 03:36:27;;;;;;;11.6;4.9;;;;;;;;;;;;;
2019/04/05 03:38:27;;;;;;;12.2;5.3;;;;;;;;;;;;;
2019/04/05 03:40:27;;;;;;;8.8;4.6;;;;;;;;;;;;;
2019/04/05 03:42:27;;;;;;;9.2;5.0;;;;;;;;;;;;;
2019/04/05 03:44:26;;;;;;;11.8;4.9;;;;;;;;;;;;;
2019/04/05 03:46:26;;;;;;;13.6;4.9;;;;;;;;;;;;;
2019/04/05 03:48:26;;;;;;;12.0;5.2;;;;;;;;;;;;;
2019/04/05 03:50:25;;;;;;;9.4;5.3;;;;;;;;;;;;;
2019/04/05 03:52:25;;;;;;;12.6;4.8;;;;;;;;;;;;;
2019/04/05 03:54:25;;;;;;;9.4;4.8;;;;;;;;;;;;;
2019/04/05 03:56:24;;;;;;;11.3;4.6;;;;;;;;;;;;;
2019/04/05 03:58:24;;;;;;;11.5;4.9;;;;;;;;;;;;;
2019/04/05 04:00:24;;;;;;;10.4;5.0;;;;;;;;;;;;;
2019/04/05 04:02:24;;;;;;;11.6;5.0;;;;;;;;;;;;;
2019/04/05 04:04:23;;;;;;;13.7;5.5;;;;;;;;;;;;;
2019/04/05 04:06:23;;;;;;;10.2;4.9;;;;;;;;;;;;;
2019/04/05 04:08:23;;;;;;;16.0;5.1;;;;;;;;;;;;;
2019/04/05 04:10:22;;;;;;;15.1;5.5;;;;;;;;;;;;;
2019/04/05 04:12:22;;;;;;;10.5;5.0;;;;;;;;;;;;;
2019/04/05 04:14:22;;;;;;;11.3;5.3;;;;;;;;;;;;;
2019/04/05 04:16:22;;;;;;;11.0;5.1;;;;;;;;;;;;;
2019/04/05 04:18:21;;;;;;;13.6;5.2;;;;;;;;;;;;;
2019/04/05 04:20:21;;;;;;;13.4;5.3;;;;;;;;;;;;;
2019/04/05 04:24:20;;;;;;;11.8;5.7;;;;;;;;;;;;;
2019/04/05 04:26:20;;;;;;;15.0;5.7;;;;;;;;;;;;;
2019/04/05 04:28:20;;;;;;;12.7;5.9;;;;;;;;;;;;;
2019/04/05 04:30:20;;;;;;;12.2;5.5;;;;;;;;;;;;;
2019/04/05 04:32:19;;;;;;;13.1;6.0;;;;;;;;;;;;;
2019/04/05 04:34:19;;;;;;;13.4;5.4;;;;;;;;;;;;;
2019/04/05 04:36:19;;;;;;;14.6;6.0;;;;;;;;;;;;;
2019/04/05 04:38:19;;;;;;;13.5;5.8;;;;;;;;;;;;;
2019/04/05 04:40:18;;;;;;;13.6;6.3;;;;;;;;;;;;;
2019/04/05 04:42:18;;;;;;;20.1;6.8;;;;;;;;;;;;;
2019/04/05 04:44:18;;;;;;;15.8;7.2;;;;;;;;;;;;;
2019/04/05 04:46:18;;;;;;;34.7;8.9;;;;;;;;;;;;;
2019/04/05 04:48:17;;;;;;;21.8;10.3;;;;;;;;;;;;;
2019/04/05 04:50:17;;;;;;;20.3;7.6;;;;;;;;;;;;;
2019/04/05 04:52:17;;;;;;;18.0;8.3;;;;;;;;;;;;;
2019/04/05 04:54:16;;;;;;;17.5;6.6;;;;;;;;;;;;;
2019/04/05 04:56:16;;;;;;;17.3;6.3;;;;;;;;;;;;;
2019/04/05 04:58:16;;;;;;;14.1;6.5;;;;;;;;;;;;;
2019/04/05 05:00:16;;;;;;;19.8;6.4;;;;;;;;;;;;;
2019/04/05 05:02:16;;;;;;;21.9;6.5;;;;;;;;;;;;;
2019/04/05 05:04:15;;;;;;;23.5;7.6;;;;;;;;;;;;;
2019/04/05 05:06:15;;;;;;;18.6;5.5;;;;;;;;;;;;;
2019/04/05 05:08:15;;;;;;;20.9;5.9;;;;;;;;;;;;;
2019/04/05 05:10:15;;;;;;;16.2;6.4;;;;;;;;;;;;;
2019/04/05 05:12:14;;;;;;;14.2;5.8;;;;;;;;;;;;;
2019/04/05 05:14:14;;;;;;;17.4;6.1;;;;;;;;;;;;;
2019/04/05 05:16:14;;;;;;;17.1;6.0;;;;;;;;;;;;;
2019/04/05 05:18:14;;;;;;;26.7;6.8;;;;;;;;;;;;;
2019/04/05 05:20:13;;;;;;;24.5;7.0;;;;;;;;;;;;;
2019/04/05 05:22:13;;;;;;;20.4;5.8;;;;;;;;;;;;;
2019/04/05 05:24:13;;;;;;;20.7;6.9;;;;;;;;;;;;;
2019/04/05 05:26:13;;;;;;;14.3;5.9;;;;;;;;;;;;;
2019/04/05 05:28:12;;;;;;;18.4;6.6;;;;;;;;;;;;;
2019/04/05 05:30:12;;;;;;;21.9;6.3;;;;;;;;;;;;;
2019/04/05 05:32:12;;;;;;;19.1;7.7;;;;;;;;;;;;;
2019/04/05 05:34:12;;;;;;;30.3;12.0;;;;;;;;;;;;;
2019/04/05 05:36:11;;;;;;;17.6;6.9;;;;;;;;;;;;;
2019/04/05 05:38:11;;;;;;;17.5;6.5;;;;;;;;;;;;;
2019/04/05 05:40:11;;;;;;;18.8;5.6;;;;;;;;;;;;;
2019/04/05 05:42:11;;;;;;;20.9;6.7;;;;;;;;;;;;;
2019/04/05 05:44:10;;;;;;;16.5;6.6;;;;;;;;;;;;;
2019/04/05 05:46:10;;;;;;;22.9;6.5;;;;;;;;;;;;;
2019/04/05 05:48:10;;;;;;;18.9;6.5;;;;;;;;;;;;;
2019/04/05 05:50:10;;;;;;;19.5;6.5;;;;;;;;;;;;;
2019/04/05 05:52:09;;;;;;;26.9;6.6;;;;;;;;;;;;;
2019/04/05 05:54:09;;;;;;;22.8;7.8;;;;;;;;;;;;;
2019/04/05 05:56:09;;;;;;;23.8;6.9;;;;;;;;;;;;;
2019/04/05 05:58:09;;;;;;;24.5;7.1;;;;;;;;;;;;;
2019/04/05 06:00:08;;;;;;;24.2;6.4;;;;;;;;;;;;;
2019/04/05 06:02:08;;;;;;;17.8;7.5;;;;;;;;;;;;;
2019/04/05 06:04:08;;;;;;;23.3;7.6;;;;;;;;;;;;;
2019/04/05 06:06:08;;;;;;;22.7;7.3;;;;;;;;;;;;;
2019/04/05 06:08:07;;;;;;;29.3;7.9;;;;;;;;;;;;;
2019/04/05 06:10:07;;;;;;;30.8;7.5;;;;;;;;;;;;;
2019/04/05 06:12:07;;;;;;;24.0;7.8;;;;;;;;;;;;;
2019/04/05 06:14:07;;;;;;;20.7;6.7;;;;;;;;;;;;;
2019/04/05 06:16:06;;;;;;;22.6;7.6;;;;;;;;;;;;;
2019/04/05 06:20:06;;;;;;;26.0;7.2;;;;;;;;;;;;;
2019/04/05 06:22:06;;;;;;;20.1;7.8;;;;;;;;;;;;;
2019/04/05 06:24:05;;;;;;;24.7;7.8;;;;;;;;;;;;;
2019/04/05 06:26:05;;;;;;;24.3;8.2;;;;;;;;;;;;;
2019/04/05 06:28:05;;;;;;;24.6;7.8;;;;;;;;;;;;;
2019/04/05 06:30:05;;;;;;;22.3;8.0;;;;;;;;;;;;;
2019/04/05 06:32:04;;;;;;;17.5;6.2;;;;;;;;;;;;;
2019/04/05 06:34:04;;;;;;;28.5;10.8;;;;;;;;;;;;;
2019/04/05 06:36:04;;;;;;;16.9;6.4;;;;;;;;;;;;;
2019/04/05 06:38:04;;;;;;;15.8;6.1;;;;;;;;;;;;;
2019/04/05 06:40:04;;;;;;;19.5;7.7;;;;;;;;;;;;;
2019/04/05 06:42:03;;;;;;;22.2;6.9;;;;;;;;;;;;;
2019/04/05 06:46:03;;;;;;;27.3;7.2;;;;;;;;;;;;;
2019/04/05 06:48:03;;;;;;;23.2;7.9;;;;;;;;;;;;;
2019/04/05 06:50:02;;;;;;;24.5;8.5;;;;;;;;;;;;;
2019/04/05 06:52:02;;;;;;;26.0;8.9;;;;;;;;;;;;;
2019/04/05 06:56:02;;;;;;;28.2;9.8;;;;;;;;;;;;;
2019/04/05 06:58:02;;;;;;;21.6;7.9;;;;;;;;;;;;;
2019/04/05 07:00:01;;;;;;;21.3;8.0;;;;;;;;;;;;;
2019/04/05 07:02:01;;;;;;;20.6;7.6;;;;;;;;;;;;;
2019/04/05 07:04:01;;;;;;;23.3;7.5;;;;;;;;;;;;;
2019/04/05 07:06:01;;;;;;;13.5;6.2;;;;;;;;;;;;;
2019/04/05 07:08:01;;;;;;;22.4;7.0;;;;;;;;;;;;;
2019/04/05 07:10:00;;;;;;;19.1;6.6;;;;;;;;;;;;;
2019/04/05 07:12:00;;;;;;;19.2;7.1;;;;;;;;;;;;;
2019/04/05 07:14:00;;;;;;;23.8;7.1;;;;;;;;;;;;;
2019/04/05 07:16:00;;;;;;;18.3;6.3;;;;;;;;;;;;;
2019/04/05 07:18:00;;;;;;;16.3;6.7;;;;;;;;;;;;;
2019/04/05 07:19:59;;;;;;;16.0;5.8;;;;;;;;;;;;;
2019/04/05 07:21:59;;;;;;;15.3;6.0;;;;;;;;;;;;;
2019/04/05 07:23:59;;;;;;;33.4;7.5;;;;;;;;;;;;;
2019/04/05 07:25:59;;;;;;;15.3;5.8;;;;;;;;;;;;;
2019/04/05 07:27:59;;;;;;;20.8;6.2;;;;;;;;;;;;;
2019/04/05 07:29:59;;;;;;;23.5;6.4;;;;;;;;;;;;;
2019/04/05 07:31:58;;;;;;;18.7;5.5;;;;;;;;;;;;;
2019/04/05 07:33:58;;;;;;;25.4;6.6;;;;;;;;;;;;;
2019/04/05 07:35:58;;;;;;;17.6;6.0;;;;;;;;;;;;;
2019/04/05 07:37:58;;;;;;;20.3;6.0;;;;;;;;;;;;;
2019/04/05 07:39:58;;;;;;;33.4;7.6;;;;;;;;;;;;;
2019/04/05 07:41:58;;;;;;;17.9;5.9;;;;;;;;;;;;;
2019/04/05 07:45:57;;;;;;;19.5;6.4;;;;;;;;;;;;;
2019/04/05 07:47:57;;;;;;;16.1;5.8;;;;;;;;;;;;;
2019/04/05 07:49:57;;;;;;;12.9;4.8;;;;;;;;;;;;;
2019/04/05 07:51:57;;;;;;;10.2;5.1;;;;;;;;;;;;;
2019/04/05 07:53:57;;;;;;;12.8;4.5;;;;;;;;;;;;;
2019/04/05 07:55:56;;;;;;;14.2;4.6;;;;;;;;;;;;;
2019/04/05 07:57:56;;;;;;;16.7;5.5;;;;;;;;;;;;;
2019/04/05 07:59:56;;;;;;;16.8;4.6;;;;;;;;;;;;;
2019/04/05 08:01:56;;;;;;;14.2;4.4;;;;;;;;;;;;;
2019/04/05 08:03:56;;;;;;;14.5;4.3;;;;;;;;;;;;;
2019/04/05 08:05:56;;;;;;;18.6;7.5;;;;;;;;;;;;;
2019/04/05 08:07:56;;;;;;;11.1;3.8;;;;;;;;;;;;;
2019/04/05 08:09:55;;;;;;;14.1;3.9;;;;;;;;;;;;;
2019/04/05 08:11:55;;;;;;;15.5;4.1;;;;;;;;;;;;;
2019/04/05 08:13:55;;;;;;;10.6;4.0;;;;;;;;;;;;;
2019/04/05 08:15:55;;;;;;;19.3;3.9;;;;;;;;;;;;;
2019/04/05 08:17:55;;;;;;;10.2;3.2;;;;;;;;;;;;;
2019/04/05 08:19:55;;;;;;;12.1;3.6;;;;;;;;;;;;;
2019/04/05 08:21:54;;;;;;;11.1;4.2;;;;;;;;;;;;;
2019/04/05 08:23:54;;;;;;;9.2;3.2;;;;;;;;;;;;;
2019/04/05 08:25:54;;;;;;;11.8;3.0;;;;;;;;;;;;;
2019/04/05 08:27:54;;;;;;;10.0;4.4;;;;;;;;;;;;;
2019/04/05 08:31:54;;;;;;;9.8;3.2;;;;;;;;;;;;;
2019/04/05 08:33:54;;;;;;;11.0;4.0;;;;;;;;;;;;;
2019/04/05 08:35:53;;;;;;;14.5;5.1;;;;;;;;;;;;;
2019/04/05 08:37:53;;;;;;;8.5;3.4;;;;;;;;;;;;;
2019/04/05 08:39:53;;;;;;;19.3;4.5;;;;;;;;;;;;;
2019/04/05 08:41:53;;;;;;;11.9;4.1;;;;;;;;;;;;;
2019/04/05 08:43:53;;;;;;;12.0;4.0;;;;;;;;;;;;;
2019/04/05 08:45:53;;;;;;;13.0;3.5;;;;;;;;;;;;;
2019/04/05 08:47:52;;;;;;;11.0;3.1;;;;;;;;;;;;;
2019/04/05 08:49:52;;;;;;;17.1;3.8;;;;;;;;;;;;;
2019/04/05 08:51:52;;;;;;;12.0;2.8;;;;;;;;;;;;;
2019/04/05 08:53:52;;;;;;;12.9;2.7;;;;;;;;;;;;;
2019/04/05 08:55:52;;;;;;;12.4;2.6;;;;;;;;;;;;;
2019/04/05 08:59:52;;;;;;;11.2;3.2;;;;;;;;;;;;;
2019/04/05 09:01:51;;;;;;;9.2;2.8;;;;;;;;;;;;;
2019/04/05 09:03:51;;;;;;;9.7;2.7;;;;;;;;;;;;;
2019/04/05 09:05:51;;;;;;;13.9;2.5;;;;;;;;;;;;;
2019/04/05 09:07:51;;;;;;;12.6;2.9;;;;;;;;;;;;;
2019/04/05 09:09:51;;;;;;;15.2;3.6;;;;;;;;;;;;;
2019/04/05 09:11:51;;;;;;;15.8;3.0;;;;;;;;;;;;;
2019/04/05 09:13:51;;;;;;;12.7;2.9;;;;;;;;;;;;;
2019/04/05 09:15:51;;;;;;;13.2;2.8;;;;;;;;;;;;;
2019/04/05 09:17:50;;;;;;;16.3;3.8;;;;;;;;;;;;;
2019/04/05 09:19:50;;;;;;;7.5;2.3;;;;;;;;;;;;;
2019/04/05 09:21:50;;;;;;;8.1;2.4;;;;;;;;;;;;;
2019/04/05 09:23:50;;;;;;;10.1;2.5;;;;;;;;;;;;;
2019/04/05 09:25:50;;;;;;;6.0;2.5;;;;;;;;;;;;;
2019/04/05 09:27:50;;;;;;;13.3;2.6;;;;;;;;;;;;;
2019/04/05 09:29:50;;;;;;;15.0;3.1;;;;;;;;;;;;;
2019/04/05 09:31:49;;;;;;;9.8;3.3;;;;;;;;;;;;;
2019/04/05 09:33:49;;;;;;;8.8;3.0;;;;;;;;;;;;;
2019/04/05 09:35:49;;;;;;;8.7;2.5;;;;;;;;;;;;;
2019/04/05 09:37:49;;;;;;;13.4;2.9;;;;;;;;;;;;;
2019/04/05 09:39:49;;;;;;;10.2;3.2;;;;;;;;;;;;;
2019/04/05 09:41:49;;;;;;;13.9;2.4;;;;;;;;;;;;;
2019/04/05 09:43:49;;;;;;;5.7;2.5;;;;;;;;;;;;;
2019/04/05 09:45:49;;;;;;;7.6;2.2;;;;;;;;;;;;;
2019/04/05 09:47:48;;;;;;;6.1;2.2;;;;;;;;;;;;;
2019/04/05 09:49:48;;;;;;;8.1;2.0;;;;;;;;;;;;;
2019/04/05 09:51:48;;;;;;;6.9;1.7;;;;;;;;;;;;;
2019/04/05 09:53:48;;;;;;;10.1;3.1;;;;;;;;;;;;;
2019/04/05 09:55:48;;;;;;;9.7;2.5;;;;;;;;;;;;;
2019/04/05 09:57:48;;;;;;;8.0;2.6;;;;;;;;;;;;;
2019/04/05 09:59:48;;;;;;;9.9;2.5;;;;;;;;;;;;;
2019/04/05 10:01:48;;;;;;;6.1;1.9;;;;;;;;;;;;;
2019/04/05 10:03:48;;;;;;;19.9;3.3;;;;;;;;;;;;;
2019/04/05 10:05:48;;;;;;;10.1;3.9;;;;;;;;;;;;;
2019/04/05 10:07:47;;;;;;;17.2;7.8;;;;;;;;;;;;;
2019/04/05 10:09:47;;;;;;;5.8;2.5;;;;;;;;;;;;;
2019/04/05 10:11:47;;;;;;;18.5;3.7;;;;;;;;;;;;;
2019/04/05 10:13:47;;;;;;;9.4;2.4;;;;;;;;;;;;;
2019/04/05 10:15:47;;;;;;;7.7;2.4;;;;;;;;;;;;;
2019/04/05 10:17:47;;;;;;;10.4;2.9;;;;;;;;;;;;;
2019/04/05 10:19:47;;;;;;;8.9;2.2;;;;;;;;;;;;;
2019/04/05 10:21:47;;;;;;;8.3;2.5;;;;;;;;;;;;;
2019/04/05 10:23:47;;;;;;;7.7;2.2;;;;;;;;;;;;;
2019/04/05 10:25:47;;;;;;;5.3;2.3;;;;;;;;;;;;;
2019/04/05 10:27:47;;;;;;;7.5;2.4;;;;;;;;;;;;;
2019/04/05 10:29:47;;;;;;;8.2;2.4;;;;;;;;;;;;;
2019/04/05 10:31:47;;;;;;;11.0;2.8;;;;;;;;;;;;;
2019/04/05 10:33:46;;;;;;;9.5;2.6;;;;;;;;;;;;;
2019/04/05 10:35:46;;;;;;;6.9;2.1;;;;;;;;;;;;;
2019/04/05 10:37:46;;;;;;;7.3;1.9;;;;;;;;;;;;;
2019/04/05 10:41:46;;;;;;;7.7;2.4;;;;;;;;;;;;;
2019/04/05 10:43:46;;;;;;;8.8;2.9;;;;;;;;;;;;;
2019/04/05 10:45:46;;;;;;;8.3;3.4;;;;;;;;;;;;;
2019/04/05 10:47:46;;;;;;;9.5;2.9;;;;;;;;;;;;;
2019/04/05 10:49:46;;;;;;;8.4;3.1;;;;;;;;;;;;;
2019/04/05 10:51:46;;;;;;;6.6;2.8;;;;;;;;;;;;;
2019/04/05 10:53:46;;;;;;;9.8;2.7;;;;;;;;;;;;;
2019/04/05 10:55:45;;;;;;;13.9;3.4;;;;;;;;;;;;;
2019/04/05 10:57:45;;;;;;;10.2;2.6;;;;;;;;;;;;;
2019/04/05 10:59:45;;;;;;;8.9;2.8;;;;;;;;;;;;;
2019/04/05 11:01:45;;;;;;;8.5;3.6;;;;;;;;;;;;;
2019/04/05 11:03:45;;;;;;;11.8;5.0;;;;;;;;;;;;;
2019/04/05 11:05:45;;;;;;;6.4;2.8;;;;;;;;;;;;;
2019/04/05 11:07:45;;;;;;;8.8;2.6;;;;;;;;;;;;;
2019/04/05 11:09:45;;;;;;;7.7;3.1;;;;;;;;;;;;;
2019/04/05 11:11:45;;;;;;;7.8;3.4;;;;;;;;;;;;;
2019/04/05 11:13:45;;;;;;;9.8;3.1;;;;;;;;;;;;;
2019/04/05 11:15:45;;;;;;;13.0;4.6;;;;;;;;;;;;;
2019/04/05 11:17:45;;;;;;;9.2;3.1;;;;;;;;;;;;;
2019/04/05 11:19:44;;;;;;;10.5;2.7;;;;;;;;;;;;;
2019/04/05 11:21:45;;;;;;;8.9;2.8;;;;;;;;;;;;;
2019/04/05 11:23:44;;;;;;;7.6;2.7;;;;;;;;;;;;;
2019/04/05 11:25:44;;;;;;;6.4;2.9;;;;;;;;;;;;;
2019/04/05 11:27:44;;;;;;;9.5;2.7;;;;;;;;;;;;;
2019/04/05 11:29:44;;;;;;;8.1;2.8;;;;;;;;;;;;;
2019/04/05 11:31:44;;;;;;;9.7;3.1;;;;;;;;;;;;;
2019/04/05 11:33:44;;;;;;;9.5;3.4;;;;;;;;;;;;;
2019/04/05 11:35:44;;;;;;;13.3;4.1;;;;;;;;;;;;;
2019/04/05 11:37:44;;;;;;;11.1;3.0;;;;;;;;;;;;;
2019/04/05 11:39:44;;;;;;;9.9;3.0;;;;;;;;;;;;;
2019/04/05 11:41:44;;;;;;;7.1;3.0;;;;;;;;;;;;;
2019/04/05 11:43:44;;;;;;;12.7;3.7;;;;;;;;;;;;;
2019/04/05 11:45:43;;;;;;;13.7;3.3;;;;;;;;;;;;;
2019/04/05 11:47:43;;;;;;;7.4;3.0;;;;;;;;;;;;;
2019/04/05 11:49:43;;;;;;;8.1;3.1;;;;;;;;;;;;;
2019/04/05 11:51:43;;;;;;;8.9;3.3;;;;;;;;;;;;;
2019/04/05 11:53:43;;;;;;;8.2;3.1;;;;;;;;;;;;;
2019/04/05 11:55:43;;;;;;;8.0;3.1;;;;;;;;;;;;;
2019/04/05 11:57:43;;;;;;;7.4;3.2;;;;;;;;;;;;;
2019/04/05 11:59:43;;;;;;;10.0;5.5;;;;;;;;;;;;;
2019/04/05 12:01:47;;;;;;;8.9;3.3;;;;;;;;;;;;;
2019/04/05 12:03:43;;;;;;;8.3;2.9;;;;;;;;;;;;;
2019/04/05 12:05:43;;;;;;;9.8;3.3;;;;;;;;;;;;;
2019/04/05 12:07:43;;;;;;;7.4;3.0;;;;;;;;;;;;;
2019/04/05 12:09:43;;;;;;;11.1;3.8;;;;;;;;;;;;;
2019/04/05 12:11:43;;;;;;;9.9;3.2;;;;;;;;;;;;;
2019/04/05 12:13:43;;;;;;;10.1;3.4;;;;;;;;;;;;;
2019/04/05 12:15:43;;;;;;;8.7;3.5;;;;;;;;;;;;;
2019/04/05 12:17:43;;;;;;;9.8;3.8;;;;;;;;;;;;;
2019/04/05 12:19:42;;;;;;;7.7;3.4;;;;;;;;;;;;;
2019/04/05 12:21:42;;;;;;;9.3;3.7;;;;;;;;;;;;;
2019/04/05 12:23:42;;;;;;;11.4;4.1;;;;;;;;;;;;;
2019/04/05 12:25:42;;;;;;;14.4;3.8;;;;;;;;;;;;;
2019/04/05 12:27:42;;;;;;;12.3;3.9;;;;;;;;;;;;;
2019/04/05 12:29:42;;;;;;;13.1;4.5;;;;;;;;;;;;;
2019/04/05 12:31:42;;;;;;;9.7;3.4;;;;;;;;;;;;;
2019/04/05 12:33:42;;;;;;;10.8;3.9;;;;;;;;;;;;;
2019/04/05 12:35:42;;;;;;;13.9;4.4;;;;;;;;;;;;;
2019/04/05 12:37:42;;;;;;;11.2;5.0;;;;;;;;;;;;;
2019/04/05 12:39:42;;;;;;;11.7;4.0;;;;;;;;;;;;;
2019/04/05 12:41:42;;;;;;;16.9;4.1;;;;;;;;;;;;;
2019/04/05 12:43:42;;;;;;;12.2;4.0;;;;;;;;;;;;;
2019/04/05 12:45:41;;;;;;;8.9;3.9;;;;;;;;;;;;;
2019/04/05 12:49:41;;;;;;;9.3;3.7;;;;;;;;;;;;;
2019/04/05 12:51:41;;;;;;;10.0;3.9;;;;;;;;;;;;;
2019/04/05 12:53:41;;;;;;;9.2;3.8;;;;;;;;;;;;;
2019/04/05 12:55:41;;;;;;;6.7;3.3;;;;;;;;;;;;;
2019/04/05 12:57:41;;;;;;;7.1;3.7;;;;;;;;;;;;;
2019/04/05 12:59:41;;;;;;;14.6;4.9;;;;;;;;;;;;;
2019/04/05 13:01:40;;;;;;;14.1;4.4;;;;;;;;;;;;;
2019/04/05 13:03:40;;;;;;;15.7;6.6;;;;;;;;;;;;;
2019/04/05 13:05:40;;;;;;;12.9;4.6;;;;;;;;;;;;;
2019/04/05 13:07:40;;;;;;;15.3;4.8;;;;;;;;;;;;;
2019/04/05 13:09:40;;;;;;;14.7;4.5;;;;;;;;;;;;;
2019/04/05 13:11:40;;;;;;;12.7;4.8;;;;;;;;;;;;;
2019/04/05 13:13:40;;;;;;;9.0;4.7;;;;;;;;;;;;;
2019/04/05 13:15:39;;;;;;;17.4;6.4;;;;;;;;;;;;;
2019/04/05 13:17:39;;;;;;;7.6;4.2;;;;;;;;;;;;;
2019/04/05 13:19:39;;;;;;;13.5;5.0;;;;;;;;;;;;;
2019/04/05 13:21:39;;;;;;;8.6;3.8;;;;;;;;;;;;;
2019/04/05 13:23:39;;;;;;;7.6;4.4;;;;;;;;;;;;;
2019/04/05 13:25:39;;;;;;;8.3;4.6;;;;;;;;;;;;;
2019/04/05 13:27:39;;;;;;;8.5;4.2;;;;;;;;;;;;;
2019/04/05 13:29:38;;;;;;;12.4;4.4;;;;;;;;;;;;;
2019/04/05 13:31:38;;;;;;;9.4;4.6;;;;;;;;;;;;;
2019/04/05 13:33:38;;;;;;;8.7;4.8;;;;;;;;;;;;;
2019/04/05 13:35:38;;;;;;;9.2;4.5;;;;;;;;;;;;;
2019/04/05 13:37:38;;;;;;;9.4;4.5;;;;;;;;;;;;;
2019/04/05 13:39:38;;;;;;;11.1;5.1;;;;;;;;;;;;;
2019/04/05 13:41:37;;;;;;;11.4;5.0;;;;;;;;;;;;;
2019/04/05 13:43:37;;;;;;;7.3;4.3;;;;;;;;;;;;;
2019/04/05 13:45:37;;;;;;;8.1;4.0;;;;;;;;;;;;;
2019/04/05 13:47:37;;;;;;;9.0;4.4;;;;;;;;;;;;;
2019/04/05 13:49:37;;;;;;;11.5;5.1;;;;;;;;;;;;;
2019/04/05 13:51:37;;;;;;;7.8;4.1;;;;;;;;;;;;;
2019/04/05 13:53:37;;;;;;;7.5;3.8;;;;;;;;;;;;;
2019/04/05 13:55:36;;;;;;;7.3;4.2;;;;;;;;;;;;;
2019/04/05 13:57:36;;;;;;;9.8;3.9;;;;;;;;;;;;;
2019/04/05 13:59:36;;;;;;;10.0;3.7;;;;;;;;;;;;;
2019/04/05 14:01:36;;;;;;;9.1;3.9;;;;;;;;;;;;;
2019/04/05 14:03:36;;;;;;;8.2;3.9;;;;;;;;;;;;;
2019/04/05 14:05:36;;;;;;;9.0;4.1;;;;;;;;;;;;;
2019/04/05 14:07:35;;;;;;;8.2;3.9;;;;;;;;;;;;;
2019/04/05 14:11:35;;;;;;;9.8;4.1;;;;;;;;;;;;;
2019/04/05 14:13:35;;;;;;;8.8;4.7;;;;;;;;;;;;;
2019/04/05 14:15:35;;;;;;;8.3;3.6;;;;;;;;;;;;;
2019/04/05 14:17:35;;;;;;;10.2;4.0;;;;;;;;;;;;;
2019/04/05 14:19:34;;;;;;;11.0;4.1;;;;;;;;;;;;;
2019/04/05 14:21:34;;;;;;;9.6;4.2;;;;;;;;;;;;;
2019/04/05 14:23:34;;;;;;;10.0;4.7;;;;;;;;;;;;;
2019/04/05 14:25:34;;;;;;;7.5;3.9;;;;;;;;;;;;;
2019/04/05 14:27:34;;;;;;;11.4;5.2;;;;;;;;;;;;;
2019/04/05 14:29:34;;;;;;;9.0;3.8;;;;;;;;;;;;;
2019/04/05 14:31:33;;;;;;;8.1;4.3;;;;;;;;;;;;;
2019/04/05 14:33:33;;;;;;;11.6;4.1;;;;;;;;;;;;;
2019/04/05 14:35:33;;;;;;;7.3;3.9;;;;;;;;;;;;;
2019/04/05 14:37:33;;;;;;;9.3;4.7;;;;;;;;;;;;;
2019/04/05 14:39:33;;;;;;;8.9;4.6;;;;;;;;;;;;;
2019/04/05 14:41:33;;;;;;;10.9;5.0;;;;;;;;;;;;;
2019/04/05 14:43:32;;;;;;;10.3;4.5;;;;;;;;;;;;;
2019/04/05 14:45:46;;;;;;;unavailable;unavailable;;;;;;;;;;;;;
2019/04/05 14:45:46;;;;;;;10.3;4.5;;;;;;;;;;;;;
2019/04/05 14:47:32;;;;;;;6.7;4.0;;;;;;;;;;;;;
2019/04/05 14:49:32;;;;;;;5.6;4.1;;;;;;;;;;;;;
2019/04/05 14:51:32;;;;;;;7.1;4.7;;;;;;;;;;;;;
2019/04/05 14:53:32;;;;;;;11.5;4.8;;;;;;;;;;;;;
2019/04/05 14:55:31;;;;;;;11.9;5.1;;;;;;;;;;;;;
2019/04/05 14:57:31;;;;;;;15.5;5.8;;;;;;;;;;;;;
2019/04/05 14:59:31;;;;;;;10.9;4.9;;;;;;;;;;;;;
2019/04/05 15:01:31;;;;;;;8.4;4.6;;;;;;;;;;;;;
2019/04/05 15:03:31;;;;;;;12.5;5.9;;;;;;;;;;;;;
2019/04/05 15:05:31;;;;;;;11.7;5.9;;;;;;;;;;;;;
2019/04/05 15:07:31;;;;;;;10.4;5.8;;;;;;;;;;;;;
2019/04/05 15:09:30;;;;;;;10.9;4.8;;;;;;;;;;;;;
2019/04/05 15:11:30;;;;;;;7.1;4.7;;;;;;;;;;;;;
2019/04/05 15:13:30;;;;;;;8.8;4.4;;;;;;;;;;;;;
2019/04/05 15:15:30;;;;;;;12.3;6.6;;;;;;;;;;;;;
2019/04/05 15:17:30;;;;;;;9.7;5.1;;;;;;;;;;;;;
2019/04/05 15:19:29;;;;;;;11.8;5.4;;;;;;;;;;;;;
2019/04/05 15:21:29;;;;;;;10.0;5.5;;;;;;;;;;;;;
2019/04/05 15:23:29;;;;;;;9.0;5.3;;;;;;;;;;;;;
2019/04/05 15:25:29;;;;;;;10.4;4.8;;;;;;;;;;;;;
2019/04/05 15:29:28;;;;;;;13.5;6.5;;;;;;;;;;;;;
2019/04/05 15:31:28;;;;;;;9.0;5.0;;;;;;;;;;;;;
2019/04/05 15:35:28;;;;;;;9.2;5.6;;;;;;;;;;;;;
2019/04/05 15:37:28;;;;;;;8.4;4.9;;;;;;;;;;;;;
2019/04/05 15:39:28;;;;;;;9.0;5.1;;;;;;;;;;;;;
2019/04/05 15:41:27;;;;;;;11.1;5.3;;;;;;;;;;;;;
2019/04/05 15:43:27;;;;;;;10.2;5.1;;;;;;;;;;;;;
2019/04/05 15:47:27;;;;;;;10.3;5.2;;;;;;;;;;;;;
2019/04/05 15:49:27;;;;;;;8.3;4.7;;;;;;;;;;;;;
2019/04/05 15:51:26;;;;;;;9.8;4.5;;;;;;;;;;;;;
2019/04/05 15:53:26;;;;;;;8.4;4.8;;;;;;;;;;;;;
2019/04/05 15:55:26;;;;;;;11.9;5.6;;;;;;;;;;;;;
2019/04/05 15:57:26;;;;;;;11.1;6.4;;;;;;;;;;;;;
2019/04/05 15:59:26;;;;;;;8.4;5.1;;;;;;;;;;;;;
2019/04/05 16:01:25;;;;;;;9.2;5.6;;;;;;;;;;;;;
2019/04/05 16:03:25;;;;;;;10.9;6.1;;;;;;;;;;;;;
2019/04/05 16:05:25;;;;;;;9.7;5.6;;;;;;;;;;;;;
2019/04/05 16:07:25;;;;;;;9.9;5.1;;;;;;;;;;;;;
2019/04/05 16:09:25;;;;;;;11.6;5.4;;;;;;;;;;;;;
2019/04/05 16:13:24;;;;;;;11.3;6.1;;;;;;;;;;;;;
2019/04/05 16:17:24;;;;;;;12.8;6.6;;;;;;;;;;;;;
2019/04/05 16:19:24;;;;;;;11.8;6.2;;;;;;;;;;;;;
2019/04/05 16:21:23;;;;;;;17.2;9.7;;;;;;;;;;;;;
2019/04/05 16:23:23;;;;;;;10.9;6.4;;;;;;;;;;;;;
2019/04/05 16:25:23;;;;;;;11.0;6.1;;;;;;;;;;;;;
2019/04/05 16:27:23;;;;;;;13.1;6.3;;;;;;;;;;;;;
2019/04/05 16:29:22;;;;;;;14.9;6.6;;;;;;;;;;;;;
2019/04/05 16:31:22;;;;;;;11.9;6.5;;;;;;;;;;;;;
2019/04/05 16:33:22;;;;;;;14.7;6.5;;;;;;;;;;;;;
2019/04/05 16:35:22;;;;;;;10.3;6.6;;;;;;;;;;;;;
2019/04/05 16:37:22;;;;;;;12.3;6.8;;;;;;;;;;;;;
2019/04/05 16:39:21;;;;;;;12.0;6.9;;;;;;;;;;;;;
2019/04/05 16:41:21;;;;;;;14.2;7.1;;;;;;;;;;;;;
2019/04/05 16:43:21;;;;;;;13.9;7.4;;;;;;;;;;;;;
2019/04/05 16:45:21;;;;;;;13.4;7.1;;;;;;;;;;;;;
2019/04/05 16:49:20;;;;;;;13.2;6.9;;;;;;;;;;;;;
2019/04/05 16:51:20;;;;;;;14.7;8.4;;;;;;;;;;;;;
2019/04/05 16:53:20;;;;;;;15.6;7.9;;;;;;;;;;;;;
2019/04/05 16:55:20;;;;;;;18.6;9.7;;;;;;;;;;;;;
2019/04/05 16:57:19;;;;;;;14.8;8.7;;;;;;;;;;;;;
2019/04/05 16:59:19;;;;;;;13.0;7.5;;;;;;;;;;;;;
2019/04/05 17:01:19;;;;;;;13.6;7.3;;;;;;;;;;;;;
2019/04/05 17:03:19;;;;;;;15.4;7.8;;;;;;;;;;;;;
2019/04/05 17:05:18;;;;;;;11.8;7.3;;;;;;;;;;;;;
2019/04/05 17:07:18;;;;;;;14.8;7.8;;;;;;;;;;;;;
2019/04/05 17:09:18;;;;;;;12.0;7.1;;;;;;;;;;;;;
2019/04/05 17:11:18;;;;;;;17.3;8.5;;;;;;;;;;;;;